Tuktoyaktuk Airport
CYUB : now visible

Airfield :











YOU CAN JOIN US ON...

 
LOGIN :

Register | Disclaimer

   EN    FR    IT 

 









Legend :    VFR   Marginal VFR   IFR   Intensive IFR   Very Intensive IFR
Visi :
Ceiling :
>= 8 km
>= 3000ft
5 to 8 km
1000 to 3000 ft
1500m to 5 km
500 to 1000 ft
800 to 1500m
200 to 500 ft
< 800m
< 200 ft
Symbols :   Thunderstorms  Fog  Heavy snow  Heavy precipitations  Wind > 20 kt






- Airport Elevation : 15 ft
- IATA code : YUB


CYUB - Tuktoyaktuk

CURRENT METAR :
  • 172300Z 01010KT 15SM FEW004 SCT220 06/03 A3016 RMK ST1CI2 SLP215

EXPIRED METARs :
  • 172200Z 01010KT 15SM FEW004 SCT220 05/03 A3016 RMK ST1CI2 SLP215
  • 172100Z 01011KT 15SM FEW004 SCT220 05/03 A3016 RMK ST1CI2 SLP215

TAF TAF CYUB
Valid from the 17 at 19:00 until the 18 at 05:00 UTC


171838Z 1719/1805 33006KT P6SM SCT004 BKN220
FM172100 03010KT P6SM SKC
BECMG 1802/1804 08010KT RMK NXT FCST BY 180100Z
CZEG FIR / North America



MET'MAP, your aeronautical weather chart ! - Copyright ORBIFLY December 2007 - Disclaimer

ORBIFLY MET'MAP TEAM :

Programming & Development : Alexandra Zaïnal
Concept & original design : Baudouin d'Aumeries
Assistance for programming : Marc-Olivier Méhu
Technical & hardware support : Manuel Goepfert

Contact : metmap@orbifly.com




SOURCES & CREDITS :

   NOAA       Earth
Advisory